Time;durP1;ratioP1;P1;durP2;ratioP2;P2;SDS_P1;SDS_P2;PMS_P1;PMS_P2;Temp;Humidity;BMP_temperature;BMP_pressure;BME280_temperature;BME280_humidity;BME280_pressure;Samples;Min_cycle;Max_cycle;Signal;HPM_P1;HPM_P2
2022/07/02 00:01:47;;;;;;;0.45;0.38;;;20.70;65.50;;;;;;6214264;23;20000;-71
2022/07/02 00:04:13;;;;;;;0.50;0.30;;;20.70;65.60;;;;;;6163766;23;20087;-71
2022/07/02 00:06:39;;;;;;;2.70;0.22;;;20.70;65.70;;;;;;6188298;23;20028;-71
2022/07/02 00:09:04;;;;;;;0.30;0.30;;;20.70;65.70;;;;;;6163770;23;20398;-71
2022/07/02 00:11:31;;;;;;;0.50;0.40;;;20.70;65.70;;;;;;6188378;23;20004;-71
2022/07/02 00:13:56;;;;;;;0.20;0.20;;;20.70;65.70;;;;;;6187543;23;20087;-71
2022/07/02 00:16:22;;;;;;;0.30;0.30;;;20.60;65.70;;;;;;6187637;23;20039;-71
2022/07/02 00:18:47;;;;;;;1.48;0.40;;;20.70;65.80;;;;;;6187574;23;20454;-71
2022/07/02 00:21:13;;;;;;;0.30;0.30;;;20.60;65.80;;;;;;6188346;23;20015;-71
2022/07/02 00:23:39;;;;;;;0.57;0.30;;;20.60;65.80;;;;;;6188476;23;20433;-71
2022/07/02 00:26:11;;;;;;;0.40;0.40;;;20.60;65.80;;;;;;6214577;23;20043;-71
2022/07/02 00:28:40;;;;;;;0.73;0.50;;;20.60;65.90;;;;;;6188513;23;20011;-71
2022/07/02 00:31:05;;;;;;;0.50;0.40;;;20.60;65.90;;;;;;6188102;23;20055;-71
2022/07/02 00:33:32;;;;;;;0.30;0.30;;;20.60;66.00;;;;;;6215025;23;20005;-71
2022/07/02 00:35:58;;;;;;;0.38;0.20;;;20.60;66.00;;;;;;6163769;23;20013;-71
2022/07/02 00:38:24;;;;;;;0.45;0.35;;;20.60;66.10;;;;;;6214585;23;20043;-71
2022/07/02 00:40:49;;;;;;;0.85;0.50;;;20.50;66.00;;;;;;6187891;23;20464;-71
2022/07/02 00:43:15;;;;;;;0.30;0.30;;;20.60;66.10;;;;;;6163460;23;20054;-71
2022/07/02 00:45:40;;;;;;;1.85;0.35;;;20.60;66.20;;;;;;6163346;23;19997;-71
2022/07/02 00:48:06;;;;;;;0.50;0.30;;;20.50;66.10;;;;;;6188258;23;20001;-71
2022/07/02 00:50:32;;;;;;;0.65;0.40;;;20.50;66.20;;;;;;6214332;23;20012;-71
2022/07/02 00:52:57;;;;;;;0.50;0.50;;;20.60;66.20;;;;;;6214558;23;20009;-71
2022/07/02 00:55:23;;;;;;;1.15;0.40;;;20.60;66.30;;;;;;6214307;23;20016;-71
2022/07/02 00:57:48;;;;;;;1.17;0.57;;;20.50;66.30;;;;;;6163472;23;20309;-71
2022/07/02 01:00:14;;;;;;;0.40;0.35;;;20.50;66.30;;;;;;6214568;23;20008;-71
2022/07/02 01:02:42;;;;;;;0.50;0.47;;;20.50;66.30;;;;;;6188121;23;19997;-71
2022/07/02 01:05:08;;;;;;;0.50;0.30;;;20.50;66.40;;;;;;6163451;23;20050;-71
2022/07/02 01:07:33;;;;;;;0.35;0.30;;;20.50;66.30;;;;;;6163344;23;20005;-71
2022/07/02 01:10:17;;;;;;;0.38;0.30;;;20.50;66.30;;;;;;6187783;23;20442;-71
2022/07/02 01:12:45;;;;;;;0.30;0.30;;;20.50;66.40;;;;;;6192071;23;19997;-71
2022/07/02 01:15:10;;;;;;;0.40;0.30;;;20.50;66.40;;;;;;6214140;23;20000;-71
2022/07/02 01:17:36;;;;;;;0.38;0.28;;;20.50;66.40;;;;;;6188027;23;20232;-71
2022/07/02 01:20:03;;;;;;;0.40;0.40;;;20.50;66.40;;;;;;6187861;23;20012;-71
2022/07/02 01:22:38;;;;;;;0.25;0.20;;;20.50;66.50;;;;;;6188299;23;20432;-71
2022/07/02 01:25:04;;;;;;;0.65;0.43;;;20.50;66.60;;;;;;6164489;23;19997;-71
2022/07/02 01:27:30;;;;;;;0.32;0.22;;;20.50;66.60;;;;;;6188128;23;19997;-71
2022/07/02 01:29:56;;;;;;;0.60;0.32;;;20.50;66.60;;;;;;6188081;23;20004;-71
2022/07/02 01:32:21;;;;;;;2.25;0.38;;;20.50;66.60;;;;;;6188074;23;20552;-71
2022/07/02 01:34:48;;;;;;;0.88;0.40;;;20.40;66.60;;;;;;6188205;23;20453;-71
2022/07/02 01:37:15;;;;;;;1.40;0.52;;;20.40;66.60;;;;;;6213877;23;20027;-71
2022/07/02 01:39:42;;;;;;;0.47;0.38;;;20.40;66.60;;;;;;6188391;23;20024;-71
2022/07/02 01:42:08;;;;;;;0.30;0.30;;;20.40;66.70;;;;;;6214285;23;20131;-71
2022/07/02 01:44:34;;;;;;;0.43;0.30;;;20.50;66.70;;;;;;6187985;23;20001;-71
2022/07/02 01:47:04;;;;;;;0.50;0.30;;;20.50;66.80;;;;;;6187862;23;20005;-71
2022/07/02 01:49:29;;;;;;;0.47;0.20;;;20.40;66.80;;;;;;6214305;23;20043;-71
2022/07/02 01:51:55;;;;;;;1.65;0.45;;;20.40;66.80;;;;;;6162725;23;20004;-71
2022/07/02 01:54:20;;;;;;;0.70;0.30;;;20.40;66.80;;;;;;6187845;23;20004;-71
2022/07/02 01:56:46;;;;;;;0.35;0.22;;;20.40;66.80;;;;;;6188004;23;20004;-71
2022/07/02 01:59:13;;;;;;;0.52;0.30;;;20.40;66.90;;;;;;6214324;23;20071;-71
2022/07/02 02:01:42;;;;;;;2.10;0.50;;;20.40;67.00;;;;;;6214278;23;20429;-71
2022/07/02 02:04:08;;;;;;;0.77;0.40;;;20.40;66.90;;;;;;6190310;23;20001;-71
2022/07/02 02:06:33;;;;;;;1.38;0.40;;;20.40;67.00;;;;;;6189448;23;20043;-71
2022/07/02 02:08:59;;;;;;;2.05;0.30;;;20.40;67.00;;;;;;6216123;23;20005;-71
2022/07/02 02:11:25;;;;;;;0.60;0.30;;;20.40;67.00;;;;;;6216216;23;20448;-71
2022/07/02 02:13:51;;;;;;;0.40;0.30;;;20.40;67.00;;;;;;6189692;23;20011;-70
2022/07/02 02:16:16;;;;;;;0.30;0.30;;;20.40;67.10;;;;;;6189658;23;20016;-70
2022/07/02 02:18:42;;;;;;;1.33;0.30;;;20.40;67.00;;;;;;6216122;23;20011;-71
2022/07/02 02:21:07;;;;;;;0.60;0.30;;;20.30;67.00;;;;;;6215701;23;20344;-71
2022/07/02 02:23:33;;;;;;;1.65;0.20;;;20.40;67.10;;;;;;6216255;23;20000;-71
2022/07/02 02:25:59;;;;;;;1.02;0.38;;;20.40;67.10;;;;;;6216080;23;19996;-71
2022/07/02 02:28:25;;;;;;;1.50;0.60;;;20.40;67.20;;;;;;6189429;23;20000;-71
2022/07/02 02:30:50;;;;;;;0.52;0.30;;;20.30;67.10;;;;;;6216181;23;20011;-71
2022/07/02 02:33:16;;;;;;;0.30;0.30;;;20.30;67.20;;;;;;6216116;23;20001;-71
2022/07/02 02:35:41;;;;;;;0.22;0.20;;;20.30;67.20;;;;;;6215724;23;20000;-71
2022/07/02 02:38:07;;;;;;;0.28;0.28;;;20.30;67.20;;;;;;6215676;23;20016;-71
2022/07/02 02:40:33;;;;;;;1.23;0.40;;;20.30;67.20;;;;;;6215573;23;20004;-71
2022/07/02 02:42:58;;;;;;;0.70;0.40;;;20.30;67.20;;;;;;6215857;23;20001;-71
2022/07/02 02:45:24;;;;;;;0.63;0.20;;;20.30;67.20;;;;;;6216250;23;20055;-71
2022/07/02 02:47:50;;;;;;;0.47;0.30;;;20.30;67.20;;;;;;6215900;23;20001;-71
2022/07/02 02:50:15;;;;;;;0.98;0.28;;;20.30;67.30;;;;;;6215520;23;20005;-71
2022/07/02 02:52:41;;;;;;;0.77;0.40;;;20.30;67.20;;;;;;6189431;23;20010;-71
2022/07/02 02:55:07;;;;;;;0.43;0.40;;;20.30;67.30;;;;;;6189129;23;20372;-71
2022/07/02 02:57:32;;;;;;;0.90;0.20;;;20.30;67.30;;;;;;6215763;23;20032;-71
2022/07/02 02:59:58;;;;;;;0.52;0.30;;;20.30;67.20;;;;;;6215750;23;20020;-71
2022/07/02 03:02:24;;;;;;;1.05;0.28;;;20.30;67.20;;;;;;6215472;23;20046;-71
2022/07/02 03:04:49;;;;;;;0.73;0.40;;;20.30;67.30;;;;;;6189155;23;20005;-71
2022/07/02 03:07:15;;;;;;;1.40;0.40;;;20.30;67.30;;;;;;6189057;23;20004;-71
2022/07/02 03:09:40;;;;;;;2.03;0.20;;;20.30;67.30;;;;;;6189232;23;20001;-71
2022/07/02 03:12:07;;;;;;;0.43;0.32;;;20.30;67.30;;;;;;6215450;23;20004;-71
2022/07/02 03:14:33;;;;;;;0.57;0.40;;;20.30;67.30;;;;;;6215109;23;20011;-71
2022/07/02 03:16:58;;;;;;;0.80;0.43;;;20.30;67.40;;;;;;6188897;23;20087;-71
2022/07/02 03:19:24;;;;;;;0.30;0.30;;;20.30;67.40;;;;;;6215293;23;20333;-71
2022/07/02 03:21:50;;;;;;;0.57;0.35;;;20.20;67.30;;;;;;6215332;23;20086;-71
2022/07/02 03:24:15;;;;;;;0.28;0.22;;;20.30;67.40;;;;;;6188871;23;20001;-71
2022/07/02 03:26:41;;;;;;;0.47;0.30;;;20.30;67.50;;;;;;6215595;23;19997;-71
2022/07/02 03:29:07;;;;;;;1.63;0.40;;;20.20;67.40;;;;;;6215276;23;20337;-70
2022/07/02 03:31:33;;;;;;;0.10;0.10;;;20.20;67.40;;;;;;6215352;23;20031;-71
2022/07/02 03:33:58;;;;;;;0.22;0.20;;;20.20;67.40;;;;;;6215203;23;20085;-71
2022/07/02 03:36:24;;;;;;;0.40;0.35;;;20.20;67.40;;;;;;6215116;23;20055;-71
2022/07/02 03:38:49;;;;;;;0.60;0.30;;;20.20;67.40;;;;;;6188878;23;20023;-70
2022/07/02 03:41:15;;;;;;;1.02;0.20;;;20.20;67.50;;;;;;6215046;23;20005;-70
2022/07/02 03:43:41;;;;;;;0.32;0.30;;;20.20;67.50;;;;;;6188856;23;20303;-71
2022/07/02 03:46:07;;;;;;;0.38;0.30;;;20.20;67.40;;;;;;6215285;23;20024;-71
2022/07/02 03:48:32;;;;;;;0.20;0.20;;;20.20;67.50;;;;;;6214964;23;20008;-71
2022/07/02 03:50:58;;;;;;;1.10;0.38;;;20.20;67.50;;;;;;6215272;23;20548;-71
2022/07/02 03:53:24;;;;;;;4.57;0.32;;;20.20;67.50;;;;;;6188612;23;20001;-71
2022/07/02 03:55:49;;;;;;;0.73;0.20;;;20.20;67.50;;;;;;6215199;23;20151;-71
2022/07/02 03:58:15;;;;;;;0.65;0.30;;;20.20;67.60;;;;;;6188619;23;20004;-71
2022/07/02 04:00:40;;;;;;;3.42;0.50;;;20.20;67.60;;;;;;6188550;23;20445;-71
2022/07/02 04:03:06;;;;;;;0.63;0.30;;;20.20;67.60;;;;;;6214778;23;19997;-71
2022/07/02 04:05:32;;;;;;;0.30;0.30;;;20.20;67.70;;;;;;6215153;23;20000;-71
2022/07/02 04:07:57;;;;;;;0.20;0.20;;;20.20;67.70;;;;;;6215143;23;20012;-71
2022/07/02 04:10:23;;;;;;;0.32;0.20;;;20.20;67.70;;;;;;6214837;23;20092;-71
2022/07/02 04:12:49;;;;;;;0.50;0.30;;;20.20;67.70;;;;;;6215023;23;20009;-71
2022/07/02 04:15:14;;;;;;;0.35;0.30;;;20.20;67.80;;;;;;6188505;23;20471;-71
2022/07/02 04:17:40;;;;;;;0.65;0.55;;;20.20;67.80;;;;;;6163415;23;20000;-71
2022/07/02 04:20:06;;;;;;;0.60;0.32;;;20.20;67.90;;;;;;6214896;23;20004;-71
2022/07/02 04:22:32;;;;;;;0.80;0.20;;;20.10;67.80;;;;;;6188246;23;20005;-71
2022/07/02 04:24:58;;;;;;;0.52;0.35;;;20.10;67.70;;;;;;6214519;23;20466;-71
2022/07/02 04:27:23;;;;;;;0.35;0.30;;;20.10;67.80;;;;;;6214672;23;20001;-71
2022/07/02 04:29:49;;;;;;;0.20;0.20;;;20.10;67.90;;;;;;6214834;23;20011;-71
2022/07/02 04:32:15;;;;;;;1.25;0.20;;;20.10;68.00;;;;;;6214521;23;20007;-71
2022/07/02 04:34:40;;;;;;;0.85;0.20;;;20.10;68.00;;;;;;6214895;23;19997;-71
2022/07/02 04:37:06;;;;;;;0.63;0.20;;;20.10;68.00;;;;;;6214452;23;20001;-71
2022/07/02 04:39:32;;;;;;;0.47;0.30;;;20.10;68.10;;;;;;6188272;23;20000;-71
2022/07/02 04:41:58;;;;;;;0.70;0.40;;;20.10;68.10;;;;;;6214942;23;20456;-71
2022/07/02 04:44:24;;;;;;;1.00;0.35;;;20.10;68.00;;;;;;6214597;23;19997;-71
2022/07/02 04:46:50;;;;;;;0.30;0.20;;;20.10;68.10;;;;;;6214508;23;20008;-71
2022/07/02 04:49:15;;;;;;;0.30;0.30;;;20.10;68.10;;;;;;6214602;23;20000;-71
2022/07/02 04:51:41;;;;;;;0.38;0.20;;;20.10;68.10;;;;;;6214606;23;20035;-71
2022/07/02 04:54:07;;;;;;;0.13;0.13;;;20.10;68.20;;;;;;6163474;23;20004;-71
2022/07/02 04:56:32;;;;;;;0.20;0.20;;;20.10;68.20;;;;;;6214438;23;20008;-71
2022/07/02 04:58:58;;;;;;;0.10;0.10;;;20.10;68.20;;;;;;6214758;23;20004;-71
2022/07/02 05:01:24;;;;;;;0.30;0.30;;;20.10;68.20;;;;;;6214260;23;20345;-71
2022/07/02 05:03:51;;;;;;;0.77;0.30;;;20.10;68.20;;;;;;6214663;23;19997;-71
2022/07/02 05:06:18;;;;;;;0.32;0.25;;;20.10;68.20;;;;;;6212767;23;20373;-72
2022/07/02 05:08:43;;;;;;;3.00;0.45;;;20.10;68.30;;;;;;6187478;23;20016;-70
2022/07/02 05:11:09;;;;;;;0.32;0.20;;;20.10;68.30;;;;;;6213007;23;20047;-71
2022/07/02 05:13:34;;;;;;;1.42;0.30;;;20.10;68.20;;;;;;6212887;23;20349;-70
2022/07/02 05:16:00;;;;;;;0.40;0.30;;;20.10;67.30;;;;;;6212735;23;20007;-70
2022/07/02 05:18:26;;;;;;;0.15;0.15;;;20.00;66.90;;;;;;6213449;23;20000;-70
2022/07/02 05:20:51;;;;;;;0.30;0.20;;;20.00;66.70;;;;;;6212802;23;20004;-70
2022/07/02 05:23:17;;;;;;;0.70;0.40;;;20.00;66.80;;;;;;6213282;23;20025;-71
2022/07/02 05:25:43;;;;;;;0.28;0.25;;;20.00;66.70;;;;;;6212432;23;20030;-71
2022/07/02 05:28:08;;;;;;;0.85;0.20;;;20.00;66.60;;;;;;6184909;23;20031;-71
2022/07/02 05:30:34;;;;;;;1.85;0.30;;;20.00;66.60;;;;;;6212175;23;20001;-71
2022/07/02 05:32:59;;;;;;;0.68;0.28;;;20.00;66.50;;;;;;6212588;23;20028;-71
2022/07/02 05:35:25;;;;;;;0.68;0.30;;;19.90;66.30;;;;;;6158790;23;20004;-70
2022/07/02 05:37:51;;;;;;;0.20;0.20;;;19.90;66.20;;;;;;6213916;23;20479;-70
2022/07/02 05:40:16;;;;;;;0.43;0.40;;;19.90;66.20;;;;;;6214364;23;20349;-70
2022/07/02 05:42:42;;;;;;;1.45;0.15;;;19.90;66.20;;;;;;6214319;23;20409;-71
2022/07/02 05:45:08;;;;;;;0.73;0.30;;;19.90;66.10;;;;;;6214194;23;20008;-70
2022/07/02 05:47:33;;;;;;;0.90;0.10;;;19.90;66.10;;;;;;6214345;23;20000;-70
2022/07/02 05:49:59;;;;;;;0.28;0.20;;;19.90;66.10;;;;;;6214489;23;20001;-70
2022/07/02 05:52:25;;;;;;;1.45;0.30;;;19.90;66.00;;;;;;6214094;23;20001;-70
2022/07/02 05:54:50;;;;;;;0.75;0.40;;;19.80;65.90;;;;;;6214208;23;20123;-70
2022/07/02 05:57:16;;;;;;;1.20;0.20;;;19.90;66.00;;;;;;6214001;23;20004;-70
2022/07/02 05:59:41;;;;;;;0.32;0.15;;;19.90;66.00;;;;;;6213914;23;20011;-70
2022/07/02 06:02:07;;;;;;;0.10;0.10;;;19.80;66.00;;;;;;6187724;23;20063;-70
2022/07/02 06:04:33;;;;;;;0.20;0.13;;;19.80;66.00;;;;;;6187510;23;20046;-70
2022/07/02 06:09:44;;;;;;;0.10;0.10;;;19.80;65.90;;;;;;6214453;23;20007;-70
2022/07/02 06:12:10;;;;;;;0.20;0.20;;;19.80;65.90;;;;;;6214268;23;20005;-70
2022/07/02 06:14:35;;;;;;;0.40;0.20;;;19.80;65.90;;;;;;6187380;23;20008;-70
2022/07/02 06:17:01;;;;;;;0.13;0.10;;;19.80;66.00;;;;;;6214060;23;20008;-70
2022/07/02 06:19:26;;;;;;;0.13;0.13;;;19.80;65.90;;;;;;6162617;23;20011;-70
2022/07/02 06:21:52;;;;;;;0.30;0.20;;;19.70;65.80;;;;;;6213997;23;20013;-70
2022/07/02 06:24:18;;;;;;;0.20;0.20;;;19.80;65.80;;;;;;6188011;23;20001;-70
2022/07/02 06:26:44;;;;;;;0.20;0.20;;;19.80;65.80;;;;;;6214033;23;20072;-70
2022/07/02 06:29:09;;;;;;;0.40;0.30;;;19.70;65.80;;;;;;6187570;23;20076;-70
2022/07/02 06:31:36;;;;;;;0.20;0.15;;;19.70;65.80;;;;;;6214419;23;20337;-70
2022/07/02 06:34:02;;;;;;;0.50;0.20;;;19.70;65.90;;;;;;6214449;23;20063;-70
2022/07/02 06:36:28;;;;;;;0.85;0.20;;;19.70;65.90;;;;;;6214103;23;20004;-70
2022/07/02 06:38:54;;;;;;;0.52;0.40;;;19.70;65.90;;;;;;6213870;23;20016;-70
2022/07/02 06:44:04;;;;;;;0.65;0.30;;;19.70;65.90;;;;;;6170891;23;20015;-70
2022/07/02 06:46:30;;;;;;;0.52;0.35;;;19.70;66.00;;;;;;6187551;23;20000;-71
2022/07/02 06:48:56;;;;;;;0.63;0.30;;;19.70;66.10;;;;;;6187390;23;19996;-71
2022/07/02 06:51:22;;;;;;;1.27;0.50;;;19.70;66.10;;;;;;6215683;23;20055;-71
2022/07/02 06:53:48;;;;;;;1.00;0.40;;;19.70;66.20;;;;;;6215590;23;20001;-71
2022/07/02 06:56:13;;;;;;;2.67;0.38;;;19.70;66.70;;;;;;6215472;23;20008;-71
2022/07/02 06:58:39;;;;;;;2.03;0.30;;;19.70;66.90;;;;;;6189009;23;20019;-71
2022/07/02 07:01:04;;;;;;;2.10;0.52;;;19.70;67.40;;;;;;6215597;23;20310;-70
2022/07/02 07:03:30;;;;;;;1.23;0.60;;;19.70;67.70;;;;;;6215574;23;20003;-70
2022/07/02 07:05:56;;;;;;;0.40;0.30;;;19.70;67.80;;;;;;6215535;23;20001;-70
2022/07/02 07:08:21;;;;;;;2.00;0.30;;;19.70;68.00;;;;;;6215485;23;20363;-70
2022/07/02 07:10:47;;;;;;;4.22;0.57;;;19.70;68.10;;;;;;6215271;23;20035;-70
2022/07/02 07:13:12;;;;;;;2.05;0.50;;;19.70;68.10;;;;;;6215394;23;20008;-70
2022/07/02 07:15:38;;;;;;;0.55;0.35;;;19.70;68.50;;;;;;6188848;23;20000;-70
2022/07/02 07:18:04;;;;;;;2.38;0.60;;;19.70;68.50;;;;;;6215648;23;20540;-70
2022/07/02 07:20:30;;;;;;;1.13;0.50;;;19.70;68.60;;;;;;6188820;23;20392;-70
2022/07/02 07:22:56;;;;;;;2.85;0.40;;;19.70;68.60;;;;;;6215343;23;20064;-70
2022/07/02 07:25:22;;;;;;;2.30;0.40;;;19.70;68.70;;;;;;6188899;23;20025;-70
2022/07/02 07:27:48;;;;;;;0.95;0.50;;;19.70;68.80;;;;;;6163993;23;20001;-70
2022/07/02 07:30:14;;;;;;;2.25;0.43;;;19.70;68.80;;;;;;6189123;23;20079;-70
2022/07/02 07:32:39;;;;;;;0.55;0.47;;;19.70;68.80;;;;;;6188753;23;20036;-70
2022/07/02 07:35:05;;;;;;;1.88;0.40;;;19.70;68.80;;;;;;6215073;23;19997;-70
2022/07/02 07:37:31;;;;;;;1.13;0.38;;;19.70;68.80;;;;;;6183659;23;20017;-70
2022/07/02 07:39:56;;;;;;;1.48;0.40;;;19.70;68.80;;;;;;6183543;23;20001;-70
2022/07/02 07:42:22;;;;;;;1.50;0.40;;;19.70;68.80;;;;;;6183708;23;20322;-70
2022/07/02 07:44:49;;;;;;;0.63;0.32;;;19.60;68.80;;;;;;6185040;23;19997;-70
2022/07/02 07:47:15;;;;;;;0.50;0.30;;;19.70;68.80;;;;;;6185111;23;20032;-70
2022/07/02 07:49:40;;;;;;;0.90;0.40;;;19.70;68.80;;;;;;6185033;23;20004;-70
2022/07/02 07:52:06;;;;;;;0.95;0.40;;;19.60;68.70;;;;;;6183822;23;20001;-70
2022/07/02 07:54:32;;;;;;;1.67;0.50;;;19.60;68.60;;;;;;6183271;23;20063;-70
2022/07/02 07:56:57;;;;;;;1.85;0.30;;;19.70;68.60;;;;;;6183543;23;20005;-70
2022/07/02 07:59:23;;;;;;;0.68;0.30;;;19.60;68.60;;;;;;6183694;23;20048;-70
2022/07/02 08:01:48;;;;;;;0.82;0.60;;;19.60;68.50;;;;;;6184636;23;20008;-70
2022/07/02 08:04:14;;;;;;;2.28;0.40;;;19.60;68.50;;;;;;6185026;23;20001;-70
2022/07/02 08:06:40;;;;;;;2.67;0.50;;;19.60;68.50;;;;;;6184876;23;20001;-70
2022/07/02 08:09:05;;;;;;;0.77;0.40;;;19.60;68.50;;;;;;6184627;23;19997;-70
2022/07/02 08:11:31;;;;;;;1.42;0.60;;;19.60;68.50;;;;;;6158767;23;20088;-70
2022/07/02 08:13:57;;;;;;;1.27;0.52;;;19.60;68.40;;;;;;6184901;23;20397;-70
2022/07/02 08:16:22;;;;;;;1.00;0.32;;;19.60;68.30;;;;;;6185003;23;20012;-70
2022/07/02 08:18:48;;;;;;;0.90;0.50;;;19.60;68.40;;;;;;6184902;23;20005;-70
2022/07/02 08:21:14;;;;;;;0.60;0.30;;;19.60;68.30;;;;;;6184866;23;20323;-70
2022/07/02 08:23:39;;;;;;;0.77;0.38;;;19.60;68.30;;;;;;6184335;23;20024;-70
2022/07/02 08:26:05;;;;;;;1.85;0.32;;;19.60;68.30;;;;;;6184993;23;20330;-70
2022/07/02 08:28:31;;;;;;;0.40;0.28;;;19.60;68.30;;;;;;6183614;23;20005;-70
2022/07/02 08:30:58;;;;;;;1.40;0.45;;;19.60;68.20;;;;;;6184560;23;20441;-70
2022/07/02 08:33:24;;;;;;;0.50;0.38;;;19.60;68.20;;;;;;6185005;23;20009;-70
2022/07/02 08:35:49;;;;;;;1.50;0.50;;;19.60;68.20;;;;;;6183203;23;20031;-70
2022/07/02 08:38:15;;;;;;;0.88;0.38;;;19.60;68.20;;;;;;6201708;23;20024;-70
2022/07/02 08:40:42;;;;;;;0.50;0.30;;;19.60;68.20;;;;;;6188161;23;20012;-70
2022/07/02 08:43:08;;;;;;;1.15;0.47;;;19.60;68.20;;;;;;6214620;23;20000;-70
2022/07/02 08:45:33;;;;;;;0.63;0.45;;;19.60;68.20;;;;;;6188236;23;20004;-70
2022/07/02 08:47:59;;;;;;;0.55;0.40;;;19.60;68.20;;;;;;6214611;23;20380;-70
2022/07/02 08:50:26;;;;;;;1.88;0.28;;;19.60;68.10;;;;;;6188275;23;20001;-70
2022/07/02 08:52:52;;;;;;;0.65;0.28;;;19.50;68.00;;;;;;6188115;23;20423;-70
2022/07/02 08:55:19;;;;;;;1.27;0.30;;;19.60;68.10;;;;;;6214763;23;20031;-70
2022/07/02 08:57:45;;;;;;;0.28;0.20;;;19.60;68.10;;;;;;6188094;23;20001;-70
2022/07/02 09:00:11;;;;;;;2.03;0.40;;;19.60;68.10;;;;;;6163406;23;20000;-70
2022/07/02 09:02:36;;;;;;;0.60;0.40;;;19.60;68.10;;;;;;6188014;23;20005;-70
2022/07/02 09:05:03;;;;;;;1.45;0.45;;;19.60;68.00;;;;;;6214601;23;20011;-70
2022/07/02 09:07:28;;;;;;;0.82;0.30;;;19.60;68.00;;;;;;6187900;23;20429;-70
2022/07/02 09:09:54;;;;;;;0.60;0.32;;;19.50;67.90;;;;;;6214383;23;20072;-70
2022/07/02 09:12:23;;;;;;;0.95;0.40;;;19.50;67.90;;;;;;6187815;23;20015;-70
2022/07/02 09:14:48;;;;;;;0.95;0.43;;;19.60;68.00;;;;;;6214506;23;20028;-70
2022/07/02 09:17:14;;;;;;;1.02;0.32;;;19.60;67.90;;;;;;6163313;23;20000;-70
2022/07/02 09:19:40;;;;;;;1.00;0.68;;;19.50;67.90;;;;;;6187953;23;20093;-70
2022/07/02 09:22:07;;;;;;;0.57;0.32;;;19.60;67.90;;;;;;6187808;23;20008;-70
2022/07/02 09:24:35;;;;;;;1.75;0.43;;;19.60;67.80;;;;;;6188011;23;20384;-70
2022/07/02 09:27:05;;;;;;;0.65;0.40;;;19.50;67.80;;;;;;6214319;23;20496;-70
2022/07/02 09:29:52;;;;;;;0.30;0.30;;;19.50;67.70;;;;;;6214426;23;20020;-70
2022/07/02 09:32:18;;;;;;;1.30;0.32;;;19.50;67.70;;;;;;6188551;23;20008;-70
2022/07/02 09:34:46;;;;;;;0.63;0.30;;;19.50;67.70;;;;;;6163215;23;20446;-70
2022/07/02 09:37:15;;;;;;;0.70;0.30;;;19.50;67.70;;;;;;6162756;23;20043;-70
2022/07/02 09:39:44;;;;;;;0.50;0.28;;;19.50;67.60;;;;;;6187956;23;20008;-70
2022/07/02 09:42:32;;;;;;;1.38;0.40;;;19.50;67.60;;;;;;6188775;23;20005;-70
2022/07/02 09:44:59;;;;;;;0.82;0.40;;;19.50;67.60;;;;;;6187860;23;20491;-70
2022/07/02 09:47:32;;;;;;;0.25;0.22;;;19.50;67.60;;;;;;6163384;23;20123;-70
2022/07/02 09:50:00;;;;;;;0.95;0.35;;;19.50;67.60;;;;;;6162688;23;20012;-70
2022/07/02 09:52:26;;;;;;;0.60;0.20;;;19.50;67.60;;;;;;6188553;23;19997;-70
2022/07/02 09:54:51;;;;;;;0.40;0.20;;;19.50;67.60;;;;;;6187808;23;20001;-70
2022/07/02 09:57:17;;;;;;;0.50;0.50;;;19.50;67.60;;;;;;6214904;23;20031;-70
2022/07/02 09:59:42;;;;;;;0.85;0.52;;;19.50;67.50;;;;;;6214098;23;20004;-70
2022/07/02 10:02:25;;;;;;;0.68;0.22;;;19.50;67.50;;;;;;6214240;23;20026;-70
2022/07/02 10:04:51;;;;;;;0.90;0.40;;;19.50;67.50;;;;;;6187553;23;20001;-70
2022/07/02 10:07:18;;;;;;;0.55;0.30;;;19.50;67.50;;;;;;6163310;23;20035;-70
2022/07/02 10:09:44;;;;;;;1.80;0.40;;;19.50;67.40;;;;;;6163214;23;20451;-70
2022/07/02 10:12:10;;;;;;;1.33;0.35;;;19.50;67.40;;;;;;6214123;23;20075;-70
2022/07/02 10:14:36;;;;;;;0.65;0.32;;;19.50;67.50;;;;;;6162819;23;20008;-70
2022/07/02 10:17:02;;;;;;;0.68;0.35;;;19.50;67.50;;;;;;6187903;23;20376;-69
2022/07/02 10:19:28;;;;;;;0.90;0.35;;;19.50;67.30;;;;;;6214134;23;20008;-70
2022/07/02 10:21:54;;;;;;;1.08;0.47;;;19.50;67.40;;;;;;6162821;23;20008;-70
2022/07/02 10:24:21;;;;;;;0.47;0.40;;;19.50;67.30;;;;;;6164018;23;20083;-70
2022/07/02 10:26:47;;;;;;;0.73;0.20;;;19.50;67.30;;;;;;6165541;23;20035;-70
2022/07/02 10:29:14;;;;;;;0.38;0.30;;;19.50;67.30;;;;;;6164674;23;20001;-70
2022/07/02 10:31:44;;;;;;;0.88;0.40;;;19.50;67.30;;;;;;6165434;23;20008;-70
2022/07/02 10:34:42;;;;;;;0.60;0.38;;;19.50;67.30;;;;;;6189149;23;20051;-70
2022/07/02 10:37:09;;;;;;;0.50;0.30;;;19.50;67.20;;;;;;6164041;23;20341;-70
2022/07/02 10:39:39;;;;;;;0.77;0.40;;;19.50;67.20;;;;;;6164776;23;20012;-70
2022/07/02 10:42:05;;;;;;;1.30;0.20;;;19.50;67.20;;;;;;6215665;23;20392;-70
2022/07/02 10:44:40;;;;;;;1.17;0.30;;;19.50;67.30;;;;;;6189426;23;20001;-70
2022/07/02 10:47:25;;;;;;;0.40;0.30;;;19.50;67.20;;;;;;6164473;23;20504;-70
2022/07/02 10:50:00;;;;;;;0.60;0.30;;;19.50;67.20;;;;;;6190759;23;20008;-70
2022/07/02 10:52:39;;;;;;;1.40;0.20;;;19.50;67.20;;;;;;6189247;23;20001;-70
2022/07/02 10:55:05;;;;;;;0.52;0.30;;;19.50;67.20;;;;;;6164497;23;20318;-70
2022/07/02 10:57:31;;;;;;;0.60;0.32;;;19.50;68.20;;;;;;6189281;23;20012;-70
2022/07/02 10:59:56;;;;;;;0.38;0.30;;;19.50;67.10;;;;;;6188985;23;20015;-70
2022/07/02 11:02:22;;;;;;;0.50;0.40;;;19.50;67.20;;;;;;6215214;23;20373;-70
2022/07/02 11:04:48;;;;;;;0.75;0.60;;;19.50;67.20;;;;;;6164497;23;20086;-70
2022/07/02 11:07:14;;;;;;;1.15;0.40;;;19.50;67.10;;;;;;6189157;23;20008;-70
2022/07/02 11:09:57;;;;;;;0.52;0.28;;;19.50;67.10;;;;;;6215721;23;20000;-70
2022/07/02 11:13:02;;;;;;;0.20;0.20;;;19.50;67.20;;;;;;6215509;23;20012;-70
2022/07/02 11:15:38;;;;;;;0.90;0.30;;;19.50;67.10;;;;;;6214939;23;20353;-70
2022/07/02 11:18:06;;;;;;;0.90;0.38;;;19.50;67.10;;;;;;6215295;23;20071;-70
2022/07/02 11:20:35;;;;;;;0.52;0.30;;;19.50;67.20;;;;;;6164448;23;20007;-70
2022/07/02 11:23:01;;;;;;;0.90;0.38;;;19.50;67.10;;;;;;6188733;23;20001;-70
2022/07/02 11:25:31;;;;;;;0.47;0.20;;;19.50;67.20;;;;;;6189159;23;20513;-70
2022/07/02 11:28:03;;;;;;;1.55;0.30;;;19.50;67.20;;;;;;6188826;23;20006;-70
2022/07/02 11:30:30;;;;;;;0.50;0.25;;;19.50;67.20;;;;;;6215647;23;20028;-70
2022/07/02 11:32:56;;;;;;;0.47;0.40;;;19.50;67.20;;;;;;6188673;23;20004;-70
2022/07/02 11:35:22;;;;;;;0.40;0.30;;;19.50;67.20;;;;;;6215188;23;20448;-70
2022/07/02 11:37:47;;;;;;;0.85;0.30;;;19.50;67.20;;;;;;6188685;23;20017;-70
2022/07/02 11:40:20;;;;;;;1.08;0.35;;;19.50;67.10;;;;;;6188614;23;20078;-70
2022/07/02 11:42:46;;;;;;;1.48;0.25;;;19.50;67.10;;;;;;6164503;23;20004;-70
2022/07/02 11:45:11;;;;;;;0.90;0.32;;;19.50;67.10;;;;;;6215052;23;20004;-70
2022/07/02 11:47:48;;;;;;;0.55;0.20;;;19.50;67.10;;;;;;6215045;23;20101;-70
2022/07/02 11:50:14;;;;;;;0.52;0.30;;;19.50;67.10;;;;;;6164274;23;19997;-70
2022/07/02 11:52:43;;;;;;;0.38;0.38;;;19.60;67.10;;;;;;6189017;23;20000;-70
2022/07/02 11:55:17;;;;;;;0.60;0.30;;;19.60;67.10;;;;;;6163833;23;20001;-70
2022/07/02 11:57:44;;;;;;;0.65;0.30;;;19.50;67.10;;;;;;6163756;23;20016;-70
2022/07/02 12:00:10;;;;;;;0.20;0.20;;;19.60;67.20;;;;;;6188804;23;20013;-70
2022/07/02 12:02:37;;;;;;;1.65;0.40;;;19.60;67.10;;;;;;6188354;23;20013;-70
2022/07/02 12:05:16;;;;;;;0.30;0.20;;;19.50;67.00;;;;;;6188766;23;20534;-70
2022/07/02 12:07:42;;;;;;;0.40;0.20;;;19.60;67.10;;;;;;6164778;23;20003;-70
2022/07/02 12:10:09;;;;;;;0.40;0.32;;;19.60;67.00;;;;;;6188573;23;19997;-70
2022/07/02 12:12:34;;;;;;;0.40;0.40;;;19.60;67.00;;;;;;6214845;23;20108;-70
2022/07/02 12:15:01;;;;;;;0.30;0.30;;;19.60;67.00;;;;;;6214463;23;20039;-70
2022/07/02 12:17:28;;;;;;;0.20;0.20;;;19.50;66.90;;;;;;6188820;23;19997;-70
2022/07/02 12:19:53;;;;;;;0.50;0.32;;;19.60;67.00;;;;;;6214910;23;20005;-70
2022/07/02 12:22:24;;;;;;;0.68;0.20;;;19.60;66.90;;;;;;6188269;23;20013;-70
2022/07/02 12:24:51;;;;;;;0.70;0.32;;;19.60;67.00;;;;;;6188539;23;19997;-70
2022/07/02 12:27:17;;;;;;;0.60;0.30;;;19.60;66.90;;;;;;6188528;23;19997;-70
2022/07/02 12:29:58;;;;;;;0.40;0.40;;;19.60;67.00;;;;;;6214665;23;20005;-70
2022/07/02 12:32:25;;;;;;;0.52;0.30;;;19.60;67.00;;;;;;6214836;23;20004;-70
2022/07/02 12:34:52;;;;;;;0.10;0.10;;;19.60;66.90;;;;;;6188609;23;20098;-70
2022/07/02 12:37:27;;;;;;;0.38;0.20;;;19.60;67.00;;;;;;6214322;23;20012;-70
2022/07/02 12:40:17;;;;;;;0.38;0.30;;;19.60;66.90;;;;;;6214834;23;20000;-70
2022/07/02 12:42:48;;;;;;;1.05;0.40;;;19.60;66.80;;;;;;6173909;23;20032;-70
2022/07/02 12:45:24;;;;;;;0.35;0.30;;;19.60;66.80;;;;;;6187819;23;20058;-70
2022/07/02 12:48:03;;;;;;;0.20;0.20;;;19.60;66.70;;;;;;6163523;23;19997;-70
2022/07/02 12:50:32;;;;;;;0.20;0.15;;;19.60;66.70;;;;;;6214593;23;20080;-70
2022/07/02 12:53:03;;;;;;;0.75;0.30;;;19.60;66.80;;;;;;6188916;23;20004;-70